URRP 252300Z 27004MPS CAVOK 12/11 Q1017 R23/CLRD70 NOSIG RMK QFE755/1007
QNH:(hPa/inHg/mmHg)1017 / 30.03 / 763
QFE:(hPa/inHg/mmHg)1007 / 29.72 / 755
Temperature12
Dew Point11
Visibility> 10000
WeatherCAVOK
Cloud Cover
Transition Altitude3500 ft.
Transition LevelFL50
SQUAWK